• Join FlightAware (Why Join?)
  • Login
  • US Flag 
08:45AM EDT


 

Airport Tracker/Info


-or-


 

Live Flight TrackerFlight Track Log ✈ N682RW ✈ 03-Mar-2014 ✈ KDTW - KEWR

Flight Track Log - Related Links

Times and Time Zones

All times are in EST time to prevent confusion due to time zone crossing. See the N682RW flight status page for this flight to view local times or setup timezone preferences in your user account.

Time Position Orientation Groundspeed Altitude Reporting Facility
EST Latitude Longitude Course Direction KTS MPH feet Rate Location/Type
03:08PM 42.1900 -83.3564 180° South 157 181 1,600  Level Cleveland Center
03:09PM 42.1314 -83.3567 180° South 250 288 4,400 3,060 Climbing Cleveland Center
03:10PM 42.0900 -83.3394 163° South 252 290 6,700 3,540 Climbing Cleveland Center
03:10PM 42.0722 -83.3089 128° Southeast 285 328 8,000 3,000 Climbing Cleveland Center
03:11PM 42.0681 -83.2411 95° East 283 326 9,800 2,220 Climbing Cleveland Center
03:12PM 42.0942 -83.1383 71° East 310 357 11,800 2,100 Climbing Cleveland Center
03:13PM 42.1211 -83.0086 74° East 359 413 14,200 2,460 Climbing Cleveland Center
03:14PM 42.1183 -82.8583 91° East 414 476 16,900 2,280 Climbing Cleveland Center
03:15PM 42.0939 -82.6667 100° East 432 497 18,900 1,980 Climbing Cleveland Center
03:16PM 42.0781 -82.4961 97° East 457 526 21,100 1,920 Climbing Cleveland Center
03:17PM 42.0589 -82.3203 98° East 471 542 22,900 1,680 Climbing Cleveland Center
03:18PM 42.0397 -82.1375 98° East 490 564 24,600 1,560 Climbing Cleveland Center
03:19PM 42.0189 -81.9500 98° East 506 582 26,200 1,500 Climbing Cleveland Center
03:20PM 41.9975 -81.7531 98° East 520 598 27,700 1,500 Climbing Cleveland Center
03:21PM 41.9717 -81.5225 98° East 525 604 29,400 1,080 Climbing Cleveland Center
03:22PM 41.9492 -81.3228 99° East 532 612 30,000 660 Climbing Cleveland Center
03:23PM 41.9275 -81.1308 99° East 515 593 30,800 840 Climbing Cleveland Center
03:24PM 41.9061 -80.9464 99° East 500 575 31,800 840 Climbing Cleveland Center
03:25PM 41.8833 -80.7639 99° East 492 566 32,600 540 Climbing Cleveland Center
03:26PM 41.8617 -80.5783 99° East 496 571 33,000 180 Climbing Cleveland Center
03:27PM 41.8397 -80.3919 99° East 498 573 33,000  Level Cleveland Center
03:28PM 41.8156 -80.2064 100° East 500 575 33,000  Level Cleveland Center
03:29PM 41.7919 -80.0222 100° East 499 574 33,000  Level Cleveland Center
03:30PM 41.7700 -79.8392 99° East 497 572 33,000  Level Cleveland Center
03:31PM 41.7411 -79.6256 100° East 496 571 33,000  Level Cleveland Center
03:32PM 41.7169 -79.4419 100° East 499 574 33,000  Level Cleveland Center
03:33PM 41.6919 -79.2497 100° East 499 574 33,000  Level Cleveland Center
03:35PM 41.6653 -79.0614 101° East 508 585 33,000  Level Cleveland Center
03:36PM 41.6425 -78.8828 100° East 518 596 33,000  Level Cleveland Center
03:37PM 41.6158 -78.6894 100° East 524 603 33,000  Level Cleveland Center
03:38PM 41.5881 -78.4978 101° East 524 603 33,000 -420 Level Cleveland Center
03:39PM 41.5608 -78.3044 101° East 524 603 32,200 -1,020 Descending Cleveland Center
03:40PM 41.5283 -78.0772 101° East 523 602 31,000 -780 Descending Cleveland Center
03:40PM 41.5164 -77.9958 101° East 521 600 31,000  Level New York Center
03:41PM 41.4844 -77.7644 100° East 527 606 31,000 -300 Level New York Center
03:42PM 41.4578 -77.5681 100° East 542 624 30,500 -1,020 Descending New York Center
03:43PM 41.4244 -77.3686 103° East 533 613 28,900 -1,500 Descending New York Center
03:44PM 41.4008 -77.1747 99° East 535 616 27,400 -1,440 Descending New York Center
03:45PM 41.3722 -76.9872 101° East 521 600 26,000 -1,320 Descending New York Center
03:46PM 41.3439 -76.8008 101° East 516 594 24,800 -1,200 Descending New York Center
03:47PM 41.2989 -76.6286 109° East 502 578 23,600 -900 Descending New York Center
03:49PM 41.2450 -76.4253 109° East 497 572 23,000 -780 Descending New York Center
03:50PM 41.1994 -76.2592 110° East 496 571 22,000 -1,260 Descending New York Center
03:51PM 41.1553 -76.0961 110° East 479 551 20,500 -1,080 Descending New York Center
03:52PM 41.1136 -75.9428 110° East 448 516 19,800 -1,080 Descending New York Center
03:53PM 41.0683 -75.7781 110° East 401 461 18,300 -1,380 Descending New York Center
03:54PM 41.0300 -75.6400 110° East 386 444 17,000 -1,200 Descending New York Center
03:55PM 40.9931 -75.5122 111° Southeast 373 429 15,900 -1,080 Descending New York Center
03:56PM 40.9575 -75.3889 111° Southeast 345 397 14,900 -1,020 Descending New York Center
03:57PM 40.9272 -75.2767 110° East 309 356 13,900 -1,080 Descending New York Center
03:58PM 40.8972 -75.1731 111° Southeast 290 334 12,700 -1,140 Descending New York Center
03:59PM 40.8722 -75.0844 110° East 270 311 11,600 -1,260 Descending New York Center
04:00PM 40.8094 -75.0714 171° South 247 284 10,100 -780 Descending New York Center
04:01PM 40.8028 -75.1544 264° West 229 264 10,000 -60 Descending New York Center
04:02PM 40.8258 -75.2347 291° West 226 260 10,000  Level New York Center
04:03PM 40.8503 -75.3144 292° West 226 260 10,000  Level New York Center
04:04PM 40.9097 -75.3078 North 227 261 10,000  Level New York Center
04:05PM 40.9111 -75.2244 89° East 239 275 10,000  Level New York Center
04:06PM 40.8903 -75.1425 109° East 242 278 10,000  Level New York Center
04:07PM 40.8503 -75.0694 126° Southeast 248 285 10,000  Level New York Center
04:08PM 40.7997 -75.1114 212° Southwest 238 274 10,000  Level New York Center
04:09PM 40.8206 -75.1992 287° West 228 262 10,000  Level New York Center
04:10PM 40.8439 -75.2789 291° West 226 260 10,000  Level New York Center
04:11PM 40.8964 -75.3025 341° North 226 260 10,000  Level New York Center
04:12PM 40.9111 -75.2253 76° East 242 278 10,000  Level New York Center
04:13PM 40.8881 -75.1367 109° East 246 283 10,000  Level New York Center
04:14PM 40.8497 -75.0722 128° Southeast 244 281 10,000 -180 Level New York Center
04:15PM 40.7992 -75.1225 217° Southwest 238 274 9,700 -480 Descending New York Center
04:16PM 40.8219 -75.2025 291° West 228 262 9,000 -360 Descending New York Center
04:17PM 40.8450 -75.2831 291° West 228 262 9,000  Level New York Center
04:18PM 40.8978 -75.3006 346° North 220 253 9,100  Climbing New York Center
04:20PM 40.9108 -75.2233 77° East 234 269 9,000 -240 Descending New York Center
04:21PM 40.8881 -75.1364 109° East 240 276 8,700 -540 Descending New York Center
04:22PM 40.8458 -75.0753 132° Southeast 239 275 8,000 -300 Descending New York Center
04:23PM 40.8061 -75.1283 225° Southwest 236 272 8,100  Climbing New York Center
04:24PM 40.8356 -75.2017 298° West 220 253 8,000 -480 Descending New York Center
04:25PM 40.8744 -75.1569 41° Northeast 215 247 7,200 -480 Descending New York Center
04:26PM 40.8597 -75.0733 103° East 222 255 7,000 -120 Descending New York Center
04:27PM 40.8425 -74.9933 106° East 219 252 7,000 -180 Level New York Center
04:28PM 40.8167 -74.9072 112° Southeast 259 298 6,700 -540 Descending New York Center
04:29PM 40.7631 -74.8331 134° Southeast 269 310 6,000 -360 Descending New York Center
04:30PM 40.7133 -74.7614 132° Southeast 266 306 6,000 -300 Level New York Center
04:31PM 40.6492 -74.7003 144° Southeast 277 319 5,500 -540 Descending New York Center
04:32PM 40.6000 -74.6667 153° Southeast 269 310 5,100 -300 Descending New York TRACON
04:33PM 40.5500 -74.6167 143° Southeast 267 307 5,000 -60 Descending New York TRACON
04:34PM 40.5000 -74.5500 135° Southeast 268 308 5,000 -300 Level New York TRACON
04:35PM 40.4667 -74.4833 123° Southeast 216 249 4,400 -720 Descending New York TRACON
04:36PM 40.4500 -74.4167 108° East 189 217 3,600 -720 Descending New York TRACON
04:37PM 40.4500 -74.3500 90° East 189 217 3,000 -360 Descending New York TRACON
04:38PM 40.4833 -74.3000 49° Northeast 186 214 3,000  Level New York TRACON
04:39PM 40.5333 -74.2667 27° Northeast 171 197 3,000 -180 Level New York TRACON
04:40PM 40.5667 -74.2333 37° Northeast 167 192 2,700 -660 Descending New York TRACON
04:41PM 40.6167 -74.2167 14° North 155 178 1,700 -900 Descending New York TRACON
04:42PM 40.6500 -74.2000 21° North 132 152 900 -600 Descending New York TRACON
04:43PM 40.7019 -74.1592 31° Northeast 135 155 200 -420 Descending New York Center
04:45PM 40.6925 -74.1687 102° East  Level Estimated